Data for 10/03/2007

Time Sea-Level Adjusted Pressure Absolute Pressure Temperature Relative Humidity Dew Point   
(mb) (inHg) (mb) (inHg) (C) (F) (%) (C) (F)
00:05 1013 29.91 842 24.86 10 50 45 -1.4 29.5
00:10 1013 29.91 842 24.86 10 50 43 -1.9 28.6
00:15 1013 29.91 842 24.86 10.3 50.5 43 -1.8 28.7
00:20 1013 29.91 842 24.86 10.1 50.2 46 -1 30.2
00:25 1013 29.91 842 24.86 9.9 49.7 46 -1.2 29.9
00:30 1013 29.91 842 24.86 9.7 49.5 47 -0.9 30.3
00:35 1013 29.91 842 24.86 9.7 49.4 47 -0.9 30.3
00:40 1013 29.91 842 24.86 9.6 49.4 48 -0.7 30.7
00:45 1013 29.91 842 24.86 9.6 49.2 48 -0.9 30.4
00:50 1013 29.91 842 24.86 9.6 49.2 48 -0.7 30.7
00:55 1013 29.91 842 24.86 9.7 49.4 48 -0.8 30.5
01:00 1013 29.91 842 24.86 9.7 49.5 49 -0.6 31
01:05 1012 29.88 842 24.86 9.8 49.6 49 -0.5 31
01:10 1012 29.88 842 24.86 9.8 49.6 46 -1.2 29.9
01:15 1012 29.88 841 24.83 9.9 49.8 46 -1.2 29.9
01:20 1012 29.88 841 24.83 9.9 49.7 47 -1 30.1
01:25 1012 29.88 841 24.83 9.8 49.6 47 -1 30.1
01:30 1012 29.88 841 24.83 9.9 49.7 48 -0.7 30.8
01:35 1012 29.88 841 24.83 9.7 49.5 49 -0.3 31.4
01:40 1012 29.88 841 24.83 9.6 49.3 49 -0.6 30.9
01:45 1012 29.88 841 24.83 9.5 49.1 49 -0.6 30.9
01:50 1012 29.88 841 24.83 9.4 48.9 50 -0.5 31
01:55 1012 29.88 841 24.83 9.4 48.8 52 0.1 32.2
02:00 1012 29.88 841 24.83 9.1 48.4 52 -0.3 31.5
02:05 1012 29.88 841 24.83 8.9 48 51 -0.7 30.8
02:10 1012 29.88 841 24.83 9 48.2 50 -0.7 30.7
02:15 1012 29.88 841 24.83 9.1 48.3 49 -1 30.2
02:20 1012 29.88 841 24.83 9.2 48.5 49 -1.1 30
02:25 1012 29.88 841 24.83 9.2 48.6 49 -0.9 30.3
02:30 1012 29.88 841 24.83 9.1 48.5 50 -0.7 30.8
02:35 1012 29.88 841 24.83 9.1 48.4 51 -0.4 31.2
02:40 1012 29.88 841 24.83 9 48.1 52 -0.2 31.6
02:45 1011 29.85 841 24.83 8.9 48 52 -0.3 31.4
02:50 1011 29.85 841 24.83 8.9 48 52 -0.3 31.5
02:55 1011 29.85 840 24.81 8.9 48 52 -0.4 31.3
03:00 1011 29.85 840 24.81 8.9 48.1 52 -0.5 31.1
03:05 1011 29.85 840 24.81 9 48.2 51 -0.4 31.2
03:10 1011 29.85 840 24.81 9.1 48.3 51 -0.5 31.1
03:15 1011 29.85 840 24.81 9.1 48.4 50 -0.8 30.5
03:20 1011 29.85 840 24.81 9.4 48.9 48 -1 30.1
03:25 1011 29.85 840 24.81 9.5 49.1 49 -0.8 30.6
03:30 1010 29.83 840 24.81 9.5 49.1 49 -0.7 30.7
03:35 1010 29.83 840 24.81 9.5 49 49 -0.6 30.9
03:40 1010 29.83 840 24.81 9.4 49 50 -0.3 31.4
03:45 1010 29.83 839 24.78 9.4 48.8 51 -0.3 31.5
03:50 1010 29.83 839 24.78 9.4 48.9 51 -0.3 31.5
03:55 1010 29.83 840 24.81 9.2 48.5 52 -0.1 31.8
04:00 1010 29.83 839 24.78 9.1 48.3 52 -0.2 31.7
04:05 1010 29.83 839 24.78 9.1 48.3 52 -0.2 31.7
04:10 1010 29.83 839 24.78 9 48.2 53 -0.1 31.8
04:15 1010 29.83 839 24.78 9 48.3 51 -0.5 31.2
04:20 1010 29.83 839 24.78 9.4 48.8 50 -0.5 31.1
04:25 1010 29.83 839 24.78 9.5 49.1 49 -0.6 30.9
04:30 1010 29.83 839 24.78 9.6 49.3 48 -0.7 30.7
04:35 1009 29.8 839 24.78 9.7 49.4 47 -1 30.2
04:40 1009 29.8 839 24.78 9.7 49.5 47 -1 30.2
04:45 1009 29.8 838 24.75 9.8 49.6 47 -0.9 30.4
04:50 1009 29.8 838 24.75 9.7 49.4 47 -1 30.2
04:55 1009 29.8 838 24.75 9.6 49.3 48 -0.7 30.7
05:00 1009 29.8 838 24.75 9.4 48.9 48 -1 30.3
05:05 1009 29.8 838 24.75 9.3 48.8 49 -0.8 30.5
05:10 1009 29.8 838 24.75 9.5 49.1 48 -1 30.1
05:15 1009 29.8 838 24.75 9.5 49.1 47 -1.3 29.7
05:20 1009 29.8 838 24.75 9.5 49.1 47 -1.2 29.8
05:25 1008 29.77 838 24.75 9.4 48.8 47 -1.2 29.8
05:30 1008 29.77 838 24.75 9.5 49.1 45 -1.8 28.7
05:35 1008 29.77 837 24.72 9.7 49.4 45 -1.7 28.9
05:40 1008 29.77 837 24.72 9.6 49.3 45 -1.8 28.7
05:45 1008 29.77 837 24.72 9.7 49.4 43 -2.1 28.1
05:50 1008 29.77 837 24.72 9.7 49.5 43 -2.1 28.3
05:55 1008 29.77 837 24.72 9.7 49.4 43 -2.3 27.9
06:00 1008 29.77 837 24.72 9.8 49.6 43 -2.3 27.9
06:05 1008 29.77 837 24.72 10 50 41 -2.5 27.5
06:10 1008 29.77 837 24.72 10.2 50.3 39 -3 26.6
06:15 1008 29.77 837 24.72 10.5 50.8 39 -2.7 27.1
06:20 1008 29.77 837 24.72 10.5 51 39 -2.8 27
06:25 1008 29.77 837 24.72 10.6 51 39 -2.7 27.2
06:30 1008 29.77 837 24.72 10.6 51.1 38 -3 26.6
06:35 1008 29.77 837 24.72 10.6 51.2 39 -2.8 27
06:40 1008 29.77 837 24.72 10.6 51 39 -2.9 26.9
06:45 1008 29.77 837 24.72 10.6 51 39 -2.7 27.1
06:50 1008 29.77 837 24.72 10.5 50.9 38 -3 26.5
06:55 1008 29.77 837 24.72 10.6 51.1 39 -2.8 26.9
07:00 1008 29.77 837 24.72 10.6 51 38 -3 26.5
07:05 1008 29.77 837 24.72 10.6 51 39 -2.9 26.8
07:10 1008 29.77 837 24.72 10.6 51.1 40 -2.5 27.5
07:15 1008 29.77 837 24.72 10.5 50.9 40 -2.6 27.3
07:20 1008 29.77 837 24.72 10.6 51.2 39 -2.6 27.3
07:25 1008 29.77 837 24.72 10.8 51.5 38 -3 26.6
07:30 1008 29.77 837 24.72 11.1 51.9 36 -3.2 26.2
07:35 1008 29.77 837 24.72 11.2 52.1 37 -3.1 26.5
07:40 1008 29.77 837 24.72 11.2 52.1 37 -3.1 26.4
07:45 1008 29.77 837 24.72 11.1 52 36 -3.4 26
07:50 1008 29.77 837 24.72 11.3 52.3 36 -3.1 26.5
07:55 1008 29.77 837 24.72 11.3 52.3 36 -3.1 26.4
08:00 1008 29.77 837 24.72 11.3 52.3 37 -2.9 26.8
08:05 1008 29.77 837 24.72 11.2 52.1 38 -2.5 27.4
08:10 1008 29.77 837 24.72 11.2 52.1 39 -2.3 27.9
08:15 1008 29.77 837 24.72 11.2 52.1 38 -2.6 27.4
08:20 1008 29.77 837 24.72 11.2 52.2 38 -2.4 27.6
08:25 1008 29.77 837 24.72 11.2 52.1 39 -2.4 27.7
08:30 1008 29.77 837 24.72 11.1 52 39 -2.2 28
08:35 1008 29.77 837 24.72 11.2 52.1 38 -2.5 27.4
08:40 1008 29.77 838 24.75 11.2 52.2 38 -2.4 27.7
08:45 1008 29.77 838 24.75 11.2 52.1 39 -2.3 27.9
08:50 1008 29.77 838 24.75 11.1 51.9 39 -2.2 28
08:55 1008 29.77 838 24.75 11.1 52 39 -2.3 27.9
09:00 1009 29.8 838 24.75 11.1 52.1 40 -2 28.3
09:05 1009 29.8 838 24.75 11.2 52.2 38 -2.5 27.5
09:10 1009 29.8 838 24.75 11.4 52.5 38 -2.5 27.5
09:15 1009 29.8 838 24.75 11.5 52.6 38 -2.3 27.9
09:20 1009 29.8 838 24.75 11.5 52.7 39 -1.9 28.5
09:25 1009 29.8 838 24.75 11.4 52.6 39 -2.1 28.2
09:30 1009 29.8 838 24.75 11.5 52.7 39 -1.9 28.5
09:35 1009 29.8 838 24.75 11.4 52.4 45 -0.1 31.9
09:40 1009 29.8 839 24.78 9.4 49 57 1.3 34.4
09:45 1010 29.83 839 24.78 8.1 46.6 62 1.3 34.3
09:50 1010 29.83 839 24.78 7.3 45.2 65 1.2 34.1
09:55 1010 29.83 839 24.78 7 44.5 66 1 33.8
10:00 1010 29.83 839 24.78 6.7 44.1 66 0.9 33.7
10:05 1010 29.83 840 24.81 6.6 43.8 67 1 33.7
10:10 1010 29.83 840 24.81 6.3 43.4 70 1.3 34.4
10:15 1011 29.85 840 24.81 6.2 43.2 74 1.9 35.4
10:20 1011 29.85 840 24.81 6 42.8 76 2.1 35.7
10:25 1011 29.85 840 24.81 6 42.8 76 2 35.6
10:30 1011 29.85 840 24.81 6.1 42.9 76 2.1 35.7
10:35 1011 29.85 840 24.81 6.1 43.1 76 2.2 35.9
10:40 1011 29.85 840 24.81 6.3 43.3 75 2.1 35.8
10:45 1011 29.85 841 24.83 6.4 43.6 74 2.1 35.8
10:50 1011 29.85 841 24.83 6.6 43.9 73 2.2 35.9
10:55 1012 29.88 841 24.83 6.5 43.7 74 2.2 35.9
11:00 1012 29.88 841 24.83 6.1 43 76 2.2 36
11:05 1012 29.88 841 24.83 6.1 43 75 2 35.6
11:10 1012 29.88 841 24.83 6.3 43.3 69 1.1 34
11:15 1012 29.88 841 24.83 6.5 43.8 67 0.9 33.6
11:20 1012 29.88 841 24.83 6.7 44 67 1 33.8
11:25 1012 29.88 841 24.83 6.4 43.5 67 0.8 33.4
11:30 1012 29.88 841 24.83 6.3 43.3 72 1.6 34.9
11:35 1012 29.88 841 24.83 6.2 43.1 72 1.5 34.7
11:40 1012 29.88 841 24.83 6.3 43.4 70 1.3 34.4
11:45 1012 29.88 841 24.83 6.1 43 71 1.2 34.1
11:50 1012 29.88 841 24.83 6.1 43 70 1 33.7
11:55 1011 29.85 841 24.83 6.2 43.1 68 0.7 33.3
12:00 1011 29.85 841 24.83 6.6 43.8 69 1.4 34.5
12:05 1011 29.85 841 24.83 7.4 45.3 64 1.1 34
12:10 1011 29.85 841 24.83 8.7 47.6 60 1.3 34.4
12:15 1011 29.85 841 24.83 8.8 47.9 58 0.9 33.7
12:20 1011 29.85 841 24.83 8.1 46.6 58 0.4 32.8
12:25 1011 29.85 841 24.83 8.1 46.6 55 -0.3 31.5
12:30 1011 29.85 841 24.83 8.4 47.2 54 -0.2 31.6
12:35 1011 29.85 841 24.83 8.5 47.3 55 0.1 32.1
12:40 1011 29.85 841 24.83 8.5 47.2 53 -0.6 31
12:45 1011 29.85 841 24.83 8.3 47 53 -0.7 30.7
12:50 1012 29.88 841 24.83 8.2 46.8 53 -0.9 30.5
12:55 1012 29.88 841 24.83 8.2 46.7 53 -0.8 30.5
13:00 1012 29.88 841 24.83 8.1 46.5 53 -0.9 30.3
13:05 1012 29.88 841 24.83 8.1 46.5 55 -0.4 31.3
13:10 1012 29.88 841 24.83 8 46.4 55 -0.5 31.1
13:15 1012 29.88 841 24.83 8 46.4 55 -0.5 31.2
13:20 1012 29.88 841 24.83 8.1 46.5 54 -0.6 31
13:25 1012 29.88 841 24.83 8.4 47.1 54 -0.4 31.2
13:30 1012 29.88 841 24.83 8.5 47.2 54 -0.3 31.4
13:35 1012 29.88 841 24.83 8.3 46.9 54 -0.5 31.2
13:40 1012 29.88 841 24.83 8.3 46.9 55 -0.2 31.6
13:45 1012 29.88 841 24.83 8.6 47.5 53 -0.3 31.5
13:50 1011 29.85 841 24.83 8.9 48.1 52 -0.4 31.3
13:55 1011 29.85 840 24.81 9.6 49.2 49 -0.5 31
14:00 1011 29.85 840 24.81 10.8 51.4 46 -0.2 31.6
14:05 1011 29.85 840 24.81 10.4 50.7 48 -0.2 31.6
14:10 1011 29.85 840 24.81 11.2 52.1 42 -1.1 30.1
14:15 1011 29.85 840 24.81 11.1 52 43 -1 30.2
14:20 1011 29.85 840 24.81 11.1 52 43 -0.9 30.3
14:25 1011 29.85 840 24.81 10.8 51.5 44 -1.1 30.1
14:30 1011 29.85 840 24.81 10.8 51.4 43 -1.1 30
14:35 1011 29.85 840 24.81 10.8 51.5 44 -1 30.3
14:40 1011 29.85 840 24.81 11 51.8 42 -1.2 29.8
14:45 1011 29.85 840 24.81 11 51.7 43 -1.2 29.9
14:50 1011 29.85 840 24.81 10.3 50.5 43 -1.6 29.2
14:55 1011 29.85 840 24.81 10.2 50.3 45 -1.2 29.8
15:00 1011 29.85 840 24.81 10.1 50.2 45 -1.2 29.8
15:05 1011 29.85 840 24.81 10 50.1 45 -1.5 29.4
15:10 1011 29.85 840 24.81 10.2 50.3 43 -1.7 29
15:15 1011 29.85 840 24.81 10.2 50.3 43 -1.9 28.5
15:20 1011 29.85 840 24.81 10 50 42 -2.4 27.7
15:25 1011 29.85 840 24.81 10 50 42 -2.2 28
15:30 1011 29.85 840 24.81 10.2 50.3 43 -1.9 28.5
15:35 1011 29.85 840 24.81 10.3 50.5 44 -1.5 29.2
15:40 1011 29.85 840 24.81 10.3 50.6 43 -1.5 29.3
15:45 1011 29.85 840 24.81 10.6 51.1 41 -2 28.4
15:50 1011 29.85 840 24.81 10.5 50.8 42 -2 28.4
15:55 1011 29.85 840 24.81 10.2 50.3 44 -1.6 29.1
16:00 1011 29.85 840 24.81 10 50 45 -1.4 29.5
16:05 1011 29.85 840 24.81 10.1 50.1 45 -1.4 29.5
16:10 1011 29.85 840 24.81 10.1 50.1 44 -1.4 29.4
16:15 1011 29.85 840 24.81 10.1 50.1 45 -1.3 29.7
16:20 1011 29.85 840 24.81 10.2 50.3 49 -0.1 31.8
16:25 1011 29.85 840 24.81 10.2 50.3 50 0.1 32.2
16:30 1011 29.85 840 24.81 10.4 50.6 49 0.3 32.5
16:35 1011 29.85 840 24.81 10.4 50.7 49 0 32.1
16:40 1011 29.85 840 24.81 10.4 50.7 48 -0.2 31.7
16:45 1011 29.85 840 24.81 10.4 50.7 51 0.7 33.3
16:50 1011 29.85 840 24.81 9.6 49.2 56 1.2 34.1
16:55 1011 29.85 840 24.81 9.2 48.5 53 0 32.1
17:00 1011 29.85 840 24.81 9.1 48.4 56 0.8 33.4
17:05 1011 29.85 840 24.81 9.1 48.3 56 0.9 33.5
17:10 1011 29.85 840 24.81 8.9 48 59 1.3 34.3
17:15 1011 29.85 840 24.81 9 48.2 55 0.6 33.1
17:20 1011 29.85 840 24.81 9.1 48.4 54 0.3 32.5
17:25 1011 29.85 840 24.81 9 48.2 54 0.1 32.2
17:30 1011 29.85 840 24.81 8.6 47.5 59 1 33.8
17:35 1011 29.85 840 24.81 8.2 46.8 60 1 33.9
17:40 1011 29.85 840 24.81 8.2 46.7 57 0.3 32.5
17:45 1011 29.85 840 24.81 8.4 47.1 56 0 32.1
17:50 1011 29.85 840 24.81 8.4 47.2 58 0.6 33
17:55 1011 29.85 841 24.83 8.3 46.9 58 0.5 33
18:00 1011 29.85 840 24.81 8.4 47 56 0.2 32.4
18:05 1011 29.85 841 24.83 8.5 47.2 54 -0.3 31.5
18:10 1012 29.88 841 24.83 8.5 47.2 52 -0.8 30.6
18:15 1012 29.88 841 24.83 8.3 47 54 -0.4 31.3
18:20 1012 29.88 841 24.83 8.1 46.6 55 -0.3 31.5
18:25 1012 29.88 841 24.83 7.9 46.2 55 -0.5 31.1
18:30 1012 29.88 841 24.83 7.9 46.2 55 -0.6 30.9
18:35 1012 29.88 841 24.83 8 46.5 56 -0.1 31.8
18:40 1012 29.88 841 24.83 8.1 46.6 60 0.8 33.5
18:45 1012 29.88 841 24.83 7.9 46.2 57 -0 31.9
18:50 1012 29.88 841 24.83 7.7 45.9 54 -0.9 30.4
18:55 1011 29.85 841 24.83 7.5 45.5 62 0.7 33.2
19:00 1012 29.88 841 24.83 7.2 45 55 -1.2 29.8
19:05 1012 29.88 841 24.83 7.3 45.1 64 0.9 33.7
19:10 1012 29.88 841 24.83 6.9 44.5 67 1.3 34.3
19:15 1012 29.88 841 24.83 6.8 44.3 68 1.4 34.6
19:20 1012 29.88 841 24.83 6.7 44 70 1.5 34.8
19:25 1012 29.88 841 24.83 6.6 43.8 71 1.7 35.1
19:30 1012 29.88 841 24.83 6.5 43.6 76 2.5 36.5
19:35 1012 29.88 841 24.83 6.2 43.2 76 2.4 36.2
19:40 1012 29.88 841 24.83 6.2 43.2 73 1.8 35.3
19:45 1012 29.88 842 24.86 6.3 43.4 74 2.1 35.8
19:50 1012 29.88 841 24.83 6.3 43.4 72 1.7 35
19:55 1012 29.88 841 24.83 6.3 43.4 74 2.1 35.7
20:00 1012 29.88 841 24.83 6.2 43.1 75 2 35.6
20:05 1012 29.88 842 24.86 6.2 43.2 74 2 35.5
20:10 1012 29.88 841 24.83 6.2 43.2 74 2 35.5
20:15 1012 29.88 842 24.86 6.2 43.2 72 1.5 34.7
20:20 1013 29.91 842 24.86 6.4 43.5 72 1.8 35.2
20:25 1013 29.91 842 24.86 6.4 43.6 71 1.5 34.7
20:30 1013 29.91 842 24.86 6.6 44 65 0.6 33.2
20:35 1013 29.91 842 24.86 6.8 44.2 66 0.8 33.5
20:40 1013 29.91 842 24.86 6.9 44.5 62 0.2 32.3
20:45 1013 29.91 842 24.86 6.9 44.5 59 -0.4 31.3
20:50 1013 29.91 842 24.86 7 44.6 58 -0.6 30.9
20:55 1013 29.91 842 24.86 7 44.6 58 -0.6 30.9
21:00 1013 29.91 842 24.86 6.8 44.3 60 -0.4 31.2
21:05 1013 29.91 842 24.86 6.8 44.2 55 -1.6 29.2
21:10 1013 29.91 842 24.86 6.9 44.4 57 -1 30.3
21:15 1013 29.91 842 24.86 6.9 44.5 57 -1 30.1
21:20 1013 29.91 842 24.86 6.8 44.2 56 -1.4 29.6
21:25 1013 29.91 842 24.86 6.7 44.1 58 -0.9 30.5
21:30 1013 29.91 842 24.86 6.5 43.7 63 -0.1 31.9
21:35 1013 29.91 842 24.86 6 42.7 67 0.3 32.5
21:40 1013 29.91 842 24.86 5.6 42.1 70 0.6 33.1
21:45 1013 29.91 842 24.86 5.5 41.9 72 0.9 33.6
21:50 1013 29.91 842 24.86 5.2 41.4 72 0.5 32.9
21:55 1013 29.91 842 24.86 5.2 41.4 70 0.2 32.3
22:00 1013 29.91 842 24.86 5.5 41.9 72 0.8 33.5
22:05 1013 29.91 842 24.86 5.4 41.8 73 0.9 33.6
22:10 1013 29.91 842 24.86 5.3 41.5 74 1 33.8
22:15 1013 29.91 842 24.86 5.2 41.4 75 1.1 34
22:20 1013 29.91 842 24.86 5.1 41.2 75 1.1 34
22:25 1013 29.91 842 24.86 5 41.1 75 1 33.8
22:30 1013 29.91 842 24.86 5.1 41.2 74 0.8 33.4
22:35 1013 29.91 842 24.86 5.2 41.4 73 0.7 33.3
22:40 1013 29.91 842 24.86 5.2 41.4 75 1.1 33.9
22:45 1013 29.91 842 24.86 4.9 40.9 76 1.1 33.9
22:50 1013 29.91 842 24.86 4.8 40.7 75 0.8 33.4
22:55 1013 29.91 842 24.86 4.8 40.6 75 0.8 33.4
23:00 1013 29.91 842 24.86 4.7 40.4 78 1.1 34
23:05 1013 29.91 842 24.86 4.5 40.2 78 1 33.9
23:10 1013 29.91 842 24.86 4.4 40 78 1 33.7
23:15 1013 29.91 842 24.86 4.4 40 79 1.1 33.9
23:20 1013 29.91 842 24.86 4.4 39.9 75 0.4 32.7
23:25 1013 29.91 842 24.86 4.4 40 73 0.1 32.1
23:30 1013 29.91 842 24.86 4.6 40.2 72 -0 32
23:35 1013 29.91 842 24.86 4.7 40.4 72 0 32.1
23:40 1013 29.91 842 24.86 4.6 40.3 74 0.3 32.6
23:45 1013 29.91 842 24.86 4.4 40 76 0.5 33
23:50 1013 29.91 842 24.86 4.3 39.7 77 0.6 33
23:55 1013 29.91 842 24.86 4.2 39.6 77 0.5 32.9
24:00 1013 29.91 842 24.86 4.1 39.4 78 0.6 33.1